Weather at Ninoy Aquino International Airport

Public forecast

Using degrees Celsius for public forecast. Weather courtesy of forecast.io.

Current aviation weather report (METAR) for Ninoy Aquino International Airport

Retrieved 2021/03/08 16:00 UTC (2 hours ago):

RPLL 081600Z 05005KT 9999 FEW025 27/20 Q1014 NOSIG RMK A2994

Aviation forecast (TAF) for Ninoy Aquino International Airport

Retrieved 2021/03/08 12:00 UTC (6 hours ago):

TAF RPLL 081100Z 0812/0918 09011KT 9999 FEW025 TX33/0906Z TN25/0821Z TEMPO 0812/0818 FEW025 SCT100 TEMPO 0818/0824 05003KT